Página principal
METAR-TAF:

METAR-TAF

Aeroportos :

Curaçao, Antilhas Neerlandesas

Aeroporto Internacional Hato

latitude: 12-12N, longitude: 068-58W, altura: 9 m

Observação actual do tempo

O boletim foi feito há 58 minutos, às 19:00 UTC
Vento 9 kt de este
Temperatura 30°C
Humidade 59%
Pressão 1011 hPa
Visibilidade 10 km ou mais
Poucas nuvensa uma altura de 2500 ft

METAR: TNCC 121900Z 09009KT 9999 FEW025 30/21 Q1011 NOSIG

Hora: 15:58 (19:58 UTC)

Previsão

Previsão válida de 12 às 16 UTC a 13 às 00 UTC
Vento 6 kt de sudeste
Visibilidade 10 km ou mais
Poucas nuvensa uma altura de 2500 ft

TAF: TNCC 121600 1218/1318 13006KT 9999 FEW025

Observações e previsões do tempo de mais de 4000 aeroportos (mensagens METAR e TAF).

As estações disponíveis são os pontos amarelos e vermelhos sobre o mapa.

Mova o rato sobre o mapa para ver o nome da estação.

Depois clique no ponto para visualizar as observações e previsões meteorológicas.

Para alterar o mapa : clique nos botões verdes com uma cruz preta para aumentar o zoom; no botão verde com uma pitada de zoom; ou nas setas verdes para mapas adjacentes.


METAR-TAF: